createdAt,value
2018-04-09T00:01:28.728Z,1008.5
2018-04-09T00:06:28.974Z,1008.6
2018-04-09T00:11:30.261Z,1008.6
2018-04-09T00:16:28.618Z,1008.6
2018-04-09T00:21:28.890Z,1008.7
2018-04-09T00:26:32.394Z,1008.7
2018-04-09T00:31:28.889Z,1008.8
2018-04-09T00:36:28.797Z,1008.7
2018-04-09T00:41:29.611Z,1008.6
2018-04-09T00:46:29.329Z,1008.8
2018-04-09T00:51:28.981Z,1008.8
2018-04-09T00:56:29.117Z,1008.7
2018-04-09T01:01:30.027Z,1008.7
2018-04-09T01:06:29.018Z,1008.6
2018-04-09T01:11:29.174Z,1008.6
2018-04-09T01:16:30.043Z,1008.6
2018-04-09T01:21:29.377Z,1008.6
2018-04-09T01:26:29.053Z,1008.6
2018-04-09T01:31:29.899Z,1008.7
2018-04-09T01:36:32.287Z,1008.8
2018-04-09T01:41:28.544Z,1008.7
2018-04-09T01:46:29.648Z,1008.7
2018-04-09T01:51:28.998Z,1008.8
2018-04-09T01:56:29.169Z,1008.8
2018-04-09T02:01:33.514Z,1008.7
2018-04-09T02:06:30.839Z,1008.6
2018-04-09T02:11:28.698Z,1008.6
2018-04-09T02:16:31.951Z,1008.6
2018-04-09T02:21:28.825Z,1008.6
2018-04-09T02:26:28.821Z,1008.6
2018-04-09T02:31:29.819Z,1008.6
2018-04-09T02:36:28.635Z,1008.6
2018-04-09T02:41:28.604Z,1008.6
2018-04-09T02:46:28.870Z,1008.6
2018-04-09T02:51:28.759Z,1008.6
2018-04-09T02:56:28.679Z,1008.6
2018-04-09T03:01:29.088Z,1008.6
2018-04-09T03:06:28.892Z,1008.5
2018-04-09T03:11:28.722Z,1008.5
2018-04-09T03:16:28.880Z,1008.5
2018-04-09T03:21:28.453Z,1008.6
2018-04-09T03:26:28.551Z,1008.5
2018-04-09T03:31:28.858Z,1008.5
2018-04-09T03:36:28.396Z,1008.6
2018-04-09T03:41:28.685Z,1008.5
2018-04-09T03:46:28.574Z,1008.6
2018-04-09T03:51:28.709Z,1008.6
2018-04-09T03:56:28.565Z,1008.7
2018-04-09T04:01:28.480Z,1008.8
2018-04-09T04:06:28.579Z,1008.8
2018-04-09T04:11:28.522Z,1008.8
2018-04-09T04:16:29.144Z,1009
2018-04-09T04:21:28.410Z,1008.9
2018-04-09T04:26:28.368Z,1008.9
2018-04-09T04:31:28.493Z,1009
2018-04-09T04:36:28.604Z,1008.9
2018-04-09T04:41:28.581Z,1008.9
2018-04-09T04:46:28.585Z,1008.9
2018-04-09T04:51:28.690Z,1008.9
2018-04-09T04:56:28.372Z,1008.8
2018-04-09T05:01:28.458Z,1008.9
2018-04-09T05:06:28.523Z,1008.9
2018-04-09T05:11:28.643Z,1009
2018-04-09T05:16:28.328Z,1008.9
2018-04-09T05:21:28.520Z,1008.9
2018-04-09T05:26:28.384Z,1009
2018-04-09T05:31:28.283Z,1008.9
2018-04-09T05:36:28.285Z,1008.9
2018-04-09T05:41:28.516Z,1008.8
2018-04-09T05:46:28.511Z,1008.9
2018-04-09T05:51:28.644Z,1008.9
2018-04-09T05:56:30.194Z,1008.8
2018-04-09T06:01:28.485Z,1008.8
2018-04-09T06:06:28.184Z,1008.9
2018-04-09T06:11:28.544Z,1008.9
2018-04-09T06:16:28.492Z,1009.1
2018-04-09T06:21:28.270Z,1009.2
2018-04-09T06:26:28.347Z,1009.1
2018-04-09T06:31:28.528Z,1009.3
2018-04-09T06:36:28.497Z,1009.2
2018-04-09T06:41:28.240Z,1009.3
2018-04-09T06:46:28.275Z,1009.2
2018-04-09T06:51:28.316Z,1009.1
2018-04-09T06:56:28.245Z,1009.1
2018-04-09T07:01:28.156Z,1009
2018-04-09T07:06:28.485Z,1009.1
2018-04-09T07:11:28.296Z,1009.1
2018-04-09T07:16:28.830Z,1008.9
2018-04-09T07:21:28.083Z,1009
2018-04-09T07:26:28.075Z,1008.9
2018-04-09T07:31:29.323Z,1008.8
2018-04-09T07:36:27.994Z,1008.7
2018-04-09T07:41:28.229Z,1008.9
2018-04-09T07:46:29.197Z,1008.8
2018-04-09T07:51:28.121Z,1008.6
2018-04-09T07:56:28.153Z,1008.6
2018-04-09T08:01:28.229Z,1008.4
2018-04-09T08:06:28.061Z,1008.3
2018-04-09T08:11:28.096Z,1008.2
2018-04-09T08:16:28.412Z,1008.3
2018-04-09T08:21:28.041Z,1008.3
2018-04-09T08:26:28.305Z,1008.4
2018-04-09T08:31:28.602Z,1008.4
2018-04-09T08:36:27.955Z,1008.2
2018-04-09T08:41:27.911Z,1008.2
2018-04-09T08:46:28.328Z,1008.2
2018-04-09T08:51:27.872Z,1008.2
2018-04-09T08:56:27.979Z,1008.1
2018-04-09T09:01:28.190Z,1008.3
2018-04-09T09:06:27.907Z,1008.2
2018-04-09T09:11:28.118Z,1008.3
2018-04-09T09:16:28.268Z,1008.4
2018-04-09T09:21:28.511Z,1008.3
2018-04-09T09:26:27.828Z,1008.3
2018-04-09T09:31:27.908Z,1008.4
2018-04-09T09:36:28.062Z,1008.2
2018-04-09T09:41:28.009Z,1008.1
2018-04-09T09:46:28.226Z,1008
2018-04-09T09:51:28.086Z,1007.9
2018-04-09T09:56:28.253Z,1008
2018-04-09T10:01:27.942Z,1008.1
2018-04-09T10:06:27.927Z,1008.1
2018-04-09T10:11:28.266Z,1008
2018-04-09T10:16:27.936Z,1008
2018-04-09T10:21:28.052Z,1007.8
2018-04-09T10:26:27.923Z,1007.8
2018-04-09T10:31:28.211Z,1007.9
2018-04-09T10:36:27.689Z,1007.7
2018-04-09T10:41:27.950Z,1007.7
2018-04-09T10:46:28.009Z,1007.6
2018-04-09T10:51:28.033Z,1007.6
2018-04-09T10:56:27.995Z,1007.5
2018-04-09T11:01:27.726Z,1007.5
2018-04-09T11:06:27.920Z,1007.4
2018-04-09T11:11:27.658Z,1007.5
2018-04-09T11:16:27.902Z,1007.5
2018-04-09T11:21:27.952Z,1007.5
2018-04-09T11:26:28.741Z,1007.5
2018-04-09T11:31:27.616Z,1007.4
2018-04-09T11:36:28.037Z,1007.3
2018-04-09T11:41:27.669Z,1007.3
2018-04-09T11:46:27.672Z,1007.3
2018-04-09T11:51:27.957Z,1007.3
2018-04-09T11:56:27.674Z,1007.2
2018-04-09T12:01:27.559Z,1007.2
2018-04-09T12:06:27.914Z,1007.2
2018-04-09T12:11:27.743Z,1007.2
2018-04-09T12:16:27.989Z,1007.1
2018-04-09T12:21:27.681Z,1007.1
2018-04-09T12:26:27.859Z,1007.1
2018-04-09T12:31:27.622Z,1006.9
2018-04-09T12:36:27.744Z,1006.8
2018-04-09T12:41:27.614Z,1006.8
2018-04-09T12:46:27.541Z,1006.7
2018-04-09T12:51:27.791Z,1006.6
2018-04-09T12:56:27.604Z,1006.6
2018-04-09T13:01:28.573Z,1006.6
2018-04-09T13:06:27.464Z,1006.5
2018-04-09T13:11:27.708Z,1006.5
2018-04-09T13:16:27.542Z,1006.4
2018-04-09T13:21:27.826Z,1006.3
2018-04-09T13:26:27.712Z,1006.3
2018-04-09T13:31:27.584Z,1006.3
2018-04-09T13:36:27.866Z,1006.3
2018-04-09T13:41:27.793Z,1006.2
2018-04-09T13:46:27.487Z,1006.2
2018-04-09T13:51:27.730Z,1006.2
2018-04-09T13:56:27.711Z,1006.1
2018-04-09T14:01:27.596Z,1006
2018-04-09T14:06:27.452Z,1006
2018-04-09T14:11:27.796Z,1005.8
2018-04-09T14:16:27.486Z,1005.7
2018-04-09T14:21:27.584Z,1005.7
2018-04-09T14:27:19.042Z,1005.7
2018-04-09T14:31:27.626Z,1005.6
2018-04-09T14:36:27.928Z,1005.4
2018-04-09T14:41:34.873Z,1005.4
2018-04-09T14:47:41.054Z,1005.2
2018-04-09T14:51:27.603Z,1005.1
2018-04-09T14:56:27.649Z,1005.2
2018-04-09T15:01:27.879Z,1005.1
2018-04-09T15:06:27.355Z,1005.2
2018-04-09T15:11:28.065Z,1005.1
2018-04-09T15:16:27.565Z,1005.2
2018-04-09T15:24:01.647Z,1004.9
2018-04-09T15:26:27.351Z,1004.9
2018-04-09T15:31:27.787Z,1004.8
2018-04-09T15:36:27.214Z,1004.8
2018-04-09T15:41:27.711Z,1004.8
2018-04-09T15:46:27.366Z,1004.7
2018-04-09T15:51:27.229Z,1004.8
2018-04-09T15:56:27.188Z,1004.8
2018-04-09T16:01:27.307Z,1004.8
2018-04-09T16:06:27.426Z,1004.8
2018-04-09T16:11:27.610Z,1004.7
2018-04-09T16:16:27.218Z,1004.6
2018-04-09T16:21:27.303Z,1004.6
2018-04-09T16:26:27.380Z,1004.6
2018-04-09T16:31:27.368Z,1004.5
2018-04-09T16:36:27.303Z,1004.6
2018-04-09T16:41:27.518Z,1004.5
2018-04-09T16:46:27.323Z,1004.4
2018-04-09T16:51:27.355Z,1004.4
2018-04-09T16:56:27.141Z,1004.3
2018-04-09T17:01:27.416Z,1004.3
2018-04-09T17:06:27.264Z,1004.1
2018-04-09T17:11:27.321Z,1004.2
2018-04-09T17:16:27.089Z,1004.2
2018-04-09T17:21:27.450Z,1004.2
2018-04-09T17:26:27.236Z,1004.1
2018-04-09T17:31:27.122Z,1004
2018-04-09T17:36:27.422Z,1003.9
2018-04-09T17:41:27.468Z,1003.9
2018-04-09T17:46:27.268Z,1003.9
2018-04-09T17:51:27.376Z,1003.8
2018-04-09T17:56:27.414Z,1003.8
2018-04-09T18:01:27.079Z,1003.7
2018-04-09T18:06:27.193Z,1003.7
2018-04-09T18:11:27.239Z,1003.7
2018-04-09T18:16:27.054Z,1003.7
2018-04-09T18:21:27.081Z,1003.7
2018-04-09T18:26:27.347Z,1003.6
2018-04-09T18:31:26.942Z,1003.7
2018-04-09T18:36:27.213Z,1003.6
2018-04-09T18:41:27.370Z,1003.6
2018-04-09T18:46:27.143Z,1003.6
2018-04-09T18:51:27.323Z,1003.6
2018-04-09T18:56:27.240Z,1003.6
2018-04-09T19:01:27.157Z,1003.6
2018-04-09T19:06:27.282Z,1003.6
2018-04-09T19:11:27.330Z,1003.7
2018-04-09T19:16:27.215Z,1003.6
2018-04-09T19:21:27.285Z,1003.5
2018-04-09T19:26:27.057Z,1003.6
2018-04-09T19:31:27.015Z,1003.4
2018-04-09T19:36:27.138Z,1003.4
2018-04-09T19:41:27.080Z,1003.5
2018-04-09T19:46:26.942Z,1003.4
2018-04-09T19:51:27.240Z,1003.3
2018-04-09T19:56:27.317Z,1003.2
2018-04-09T20:01:27.236Z,1003.2
2018-04-09T20:06:26.985Z,1003.2
2018-04-09T20:11:27.054Z,1003.2
2018-04-09T20:16:27.088Z,1003.1
2018-04-09T20:21:27.186Z,1003
2018-04-09T20:26:27.044Z,1003
2018-04-09T20:31:26.885Z,1003
2018-04-09T20:36:27.017Z,1002.9
2018-04-09T20:41:26.806Z,1002.9
2018-04-09T20:46:27.018Z,1002.8
2018-04-09T20:51:27.075Z,1002.6
2018-04-09T20:56:26.879Z,1002.5
2018-04-09T21:01:27.148Z,1002.5
2018-04-09T21:06:27.163Z,1002.4
2018-04-09T21:11:26.928Z,1002.4
2018-04-09T21:16:27.065Z,1002.4
2018-04-09T21:21:26.944Z,1002.4
2018-04-09T21:26:27.082Z,1002.3
2018-04-09T21:31:26.838Z,1002.2
2018-04-09T21:36:27.099Z,1002.2
2018-04-09T21:41:26.763Z,1002.2
2018-04-09T21:46:27.103Z,1002.1
2018-04-09T21:51:26.916Z,1002.1
2018-04-09T21:56:27.104Z,1002.1
2018-04-09T22:01:26.933Z,1002.1
2018-04-09T22:06:26.960Z,1002.1
2018-04-09T22:11:27.375Z,1002
2018-04-09T22:16:26.984Z,1002
2018-04-09T22:21:26.775Z,1002
2018-04-09T22:26:26.753Z,1001.9
2018-04-09T22:31:27.192Z,1001.9
2018-04-09T22:36:27.166Z,1001.9
2018-04-09T22:41:27.327Z,1001.8
2018-04-09T22:46:26.850Z,1001.8
2018-04-09T22:51:27.101Z,1001.8
2018-04-09T22:56:27.972Z,1001.8
2018-04-09T23:01:26.846Z,1001.7
2018-04-09T23:06:27.137Z,1001.7
2018-04-09T23:11:27.088Z,1001.6
2018-04-09T23:16:26.873Z,1001.5
2018-04-09T23:21:26.591Z,1001.6
2018-04-09T23:26:27.293Z,1001.5
2018-04-09T23:31:27.879Z,1001.5
2018-04-09T23:36:26.686Z,1001.5
2018-04-09T23:41:27.465Z,1001.5
2018-04-09T23:46:26.808Z,1001.4
2018-04-09T23:51:26.937Z,1001.4
2018-04-09T23:56:27.409Z,1001.3
